LFLH weather

Chalon-Champforgeuil Airport
Chalon/Champforgueil, Burgundy, France

Public forecast

Using degrees Celsius for public forecast. Weather courtesy of forecast.io.

METAR (pilot weather report)

Closest report is Dole-Tavaux Airport, 28.5 nm (52.7 km) ENE. Retrieved 2019/09/22 10:30 UTC (23 minutes ago):

LFGJ 221030Z AUTO 19015KT 9999 FEW042 26/15 Q1010 TEMPO 21015G25KT BECMG FEW045TCU SCT055

TAF (pilot weather forecast)

Forecast is more than 12 hours old.

Closest forecast is Dijon-Bourgogne Airport, 28.8 nm (53.4 km) NNE. Retrieved 2015/06/01 00:11 UTC (4 years ago):

TAF LFSD 010600Z 0100/0124 CNL